地図

経路データ

SID SEASON NUMBER BASIN SUBBASIN NAME ISO_TIME NATURE LAT LON WMO_WIND WMO_PRES WMO_AGENCY TRACK_TYPE DIST2LAND LANDFALL IFLAG USA_AGENCY USA_ATCF_ID USA_LAT USA_LON USA_RECORD USA_STATUS USA_WIND USA_PRES USA_SSHS USA_R34_NE USA_R34_SE USA_R34_SW USA_R34_NW USA_R50_NE USA_R50_SE USA_R50_SW USA_R50_NW USA_R64_NE USA_R64_SE USA_R64_SW USA_R64_NW USA_POCI USA_ROCI USA_RMW USA_EYE TOKYO_LAT TOKYO_LON TOKYO_GRADE TOKYO_WIND TOKYO_PRES TOKYO_R50_DIR TOKYO_R50_LONG TOKYO_R50_SHORT TOKYO_R30_DIR TOKYO_R30_LONG TOKYO_R30_SHORT TOKYO_LAND CMA_LAT CMA_LON CMA_CAT CMA_WIND CMA_PRES HKO_LAT HKO_LON HKO_CAT HKO_WIND HKO_PRES NEWDELHI_LAT NEWDELHI_LON NEWDELHI_GRADE NEWDELHI_WIND NEWDELHI_PRES NEWDELHI_CI NEWDELHI_DP NEWDELHI_POCI REUNION_LAT REUNION_LON REUNION_TYPE REUNION_WIND REUNION_PRES REUNION_TNUM REUNION_CI REUNION_RMW REUNION_R34_NE REUNION_R34_SE REUNION_R34_SW REUNION_R34_NW REUNION_R50_NE REUNION_R50_SE REUNION_R50_SW REUNION_R50_NW REUNION_R64_NE REUNION_R64_SE REUNION_R64_SW REUNION_R64_NW BOM_LAT BOM_LON BOM_TYPE BOM_WIND BOM_PRES BOM_TNUM BOM_CI BOM_RMW BOM_R34_NE BOM_R34_SE BOM_R34_SW BOM_R34_NW BOM_R50_NE BOM_R50_SE BOM_R50_SW BOM_R50_NW BOM_R64_NE BOM_R64_SE BOM_R64_SW BOM_R64_NW BOM_ROCI BOM_POCI BOM_EYE BOM_POS_METHOD BOM_PRES_METHOD NADI_LAT NADI_LON NADI_CAT NADI_WIND NADI_PRES WELLINGTON_LAT WELLINGTON_LON WELLINGTON_WIND WELLINGTON_PRES DS824_LAT DS824_LON DS824_STAGE DS824_WIND DS824_PRES TD9636_LAT TD9636_LON TD9636_STAGE TD9636_WIND TD9636_PRES TD9635_LAT TD9635_LON TD9635_WIND TD9635_PRES TD9635_ROCI NEUMANN_LAT NEUMANN_LON NEUMANN_CLASS NEUMANN_WIND NEUMANN_PRES MLC_LAT MLC_LON MLC_CLASS MLC_WIND MLC_PRES USA_GUST BOM_GUST BOM_GUST_PER REUNION_GUST REUNION_GUST_PER USA_SEAHGT USA_SEARAD_NE USA_SEARAD_SE USA_SEARAD_SW USA_SEARAD_NW STORM_SPEED STORM_DIR
1964267N21089 1964 87 NI BB NOT_NAMED 1964-09-22 18:00:00 TS 20.6000 89.3000 main 113 113 O________O____ jtwc_io IO091964 20.6000 89.3000 -1 20.6000 89.3000 TC 1 0
1964267N21089 1964 87 NI BB NOT_NAMED 1964-09-22 21:00:00 TS 20.6099 89.2748 main 113 100 P________P____ IO091964 20.6099 89.2748 -1 20.6099 89.2748 TC 2 299
1964267N21089 1964 87 NI BB NOT_NAMED 1964-09-23 00:00:00 TS 20.7000 89.1000 main 100 78 O________O____ jtwc_io IO091964 20.7000 89.1000 -1 20.7000 89.1000 TC 25 6 299
1964267N21089 1964 87 NI BB NOT_NAMED 1964-09-23 03:00:00 TS 20.9179 88.6779 main 80 44 P________PO___ IO091964 20.9201 88.6752 -1 20.9201 88.6752 TC 25 20.9000 88.7000 1 11 298
1964267N21089 1964 87 NI BB NOT_NAMED 1964-09-23 06:00:00 TS 21.1921 88.1045 main 45 30 O________OP___ jtwc_io IO091964 21.2000 88.1000 -1 21.2000 88.1000 TC 25 21.1603 88.1224 1 12 296
1964267N21089 1964 87 NI BB NOT_NAMED 1964-09-23 09:00:00 TS 21.4378 87.5258 main 24 0 P________PP___ IO091964 21.4424 87.5222 -1 21.4424 87.5222 TC 25 21.4258 87.5352 1 12 295
1964267N21089 1964 87 NI BB NOT_NAMED 1964-09-23 12:00:00 TS 21.7011 86.9101 main 0 0 O________OP___ jtwc_io IO091964 21.7000 86.9000 -1 21.7000 86.9000 TC 25 21.7034 86.9304 1 13 295
1964267N21089 1964 87 NI BB NOT_NAMED 1964-09-23 15:00:00 TS 21.9899 86.2715 main 0 0 P________PO___ IO091964 21.9848 86.2573 -1 21.9848 86.2573 TC 25 22.0000 86.3000 1 13 297
1964267N21089 1964 87 NI BB NOT_NAMED 1964-09-23 18:00:00 TS 22.3058 85.6141 main 0 0 O________OP___ jtwc_io IO091964 22.3000 85.6000 -1 22.3000 85.6000 TC 25 22.3175 85.6424 1 14 299
1964267N21089 1964 87 NI BB NOT_NAMED 1964-09-23 21:00:00 TS 22.6611 84.9415 main 0 0 P________PP___ IO091964 22.6726 84.9204 -1 22.6726 84.9204 TC 25 22.6382 84.9837 1 14 299
1964267N21089 1964 87 NI BB NOT_NAMED 1964-09-24 00:00:00 TS 22.9799 84.3194 main 0 0 O________OP___ jtwc_io IO091964 23.0000 84.3000 -1 23.0000 84.3000 TC 25 22.9396 84.3581 1 12 297
1964267N21089 1964 87 NI BB NOT_NAMED 1964-09-24 03:00:00 TS 23.1865 83.8030 main 0 0 P________PO___ IO091964 23.1797 83.8045 -1 23.1797 83.8045 TC 25 23.2000 83.8000 1 9 292
1964267N21089 1964 87 NI BB NOT_NAMED 1964-09-24 06:00:00 TS 23.3306 83.3839 main 0 0 O________OP___ jtwc_io IO091964 23.3000 83.4000 -1 23.3000 83.4000 TC 25 23.3917 83.3516 1 8 292
1964267N21089 1964 87 NI BB NOT_NAMED 1964-09-24 09:00:00 TS 23.4809 83.0193 main 0 0 P________PP___ IO091964 23.4498 83.0423 -1 23.4498 83.0423 TC 25 23.5433 82.9732 1 7 294
1964267N21089 1964 87 NI BB NOT_NAMED 1964-09-24 12:00:00 TS 23.6244 82.6777 main 0 0 O________OP___ jtwc_io IO091964 23.6000 82.7000 -1 23.6000 82.7000 TC 25 23.6733 82.6332 1 7 293
1964267N21089 1964 87 NI BB NOT_NAMED 1964-09-24 15:00:00 TS 23.7667 82.3000 main 0 0 P________PO___ IO091964 23.7500 82.3000 -1 23.7500 82.3000 TC 25 23.8000 82.3000 1 7 291
1964267N21089 1964 87 NI BB NOT_NAMED 1964-09-24 18:00:00 TS 23.8892 81.9221 main 0 0 O________OP___ jtwc_io IO091964 23.9000 81.9000 -1 23.9000 81.9000 TC 25 23.8676 81.9664 1 7 290
1964267N21089 1964 87 NI BB NOT_NAMED 1964-09-24 21:00:00 TS 24.0009 81.5805 main 0 0 P________PP___ IO091964 24.0273 81.5571 -1 24.0273 81.5571 TC 25 23.9483 81.6272 1 7 293
1964267N21089 1964 87 NI BB NOT_NAMED 1964-09-25 00:00:00 TS 24.1683 81.2165 main 0 0 O________OP___ jtwc_io IO091964 24.2000 81.2000 -1 24.2000 81.2000 TC 25 24.1048 81.2496 1 8 300
1964267N21089 1964 87 NI BB NOT_NAMED 1964-09-25 03:00:00 TS 24.4113 80.8058 main 0 0 P________PO___ IO091964 24.4170 80.8087 -1 24.4170 80.8087 TC 25 24.4000 80.8000 1 11 307
1964267N21089 1964 87 NI BB NOT_NAMED 1964-09-25 06:00:00 TS 24.8305 80.2678 main 0 0 O________OP___ jtwc_io IO091964 24.8000 80.3000 -1 24.8000 80.3000 TC 25 24.8916 80.2034 1 16 313
1964267N21089 1964 87 NI BB NOT_NAMED 1964-09-25 09:00:00 TS 25.4629 79.5553 main 0 0 P________PP___ IO091964 25.4332 79.5661 -1 25.4332 79.5661 TC 25 25.5223 79.5336 1 19 317
1964267N21089 1964 87 NI BB NOT_NAMED 1964-09-25 12:00:00 TS 26.2139 78.8155 main 0 0 O________OP___ jtwc_io IO091964 26.2000 78.8000 -1 26.2000 78.8000 TC 25 26.2417 78.8466 1 19 321
1964267N21089 1964 87 NI BB NOT_NAMED 1964-09-25 15:00:00 TS 26.9613 78.2077 main 0 0 P________PO___ IO091964 26.9420 78.2115 -1 26.9420 78.2115 TC 25 27.0000 78.2000 1 18 326
1964267N21089 1964 87 NI AS NOT_NAMED 1964-09-25 18:00:00 TS 27.7230 77.6758 main 0 0 O________OP___ jtwc_io IO091964 27.7000 77.7000 -1 27.7000 77.7000 TC 25 27.7575 77.6395 1 18 329
1964267N21089 1964 87 NI AS NOT_NAMED 1964-09-25 21:00:00 TS 28.4768 77.1810 main 0 0 P________PP___ IO091964 28.4530 77.2016 -1 28.4530 77.2016 TC 25 28.5087 77.1536 1 17 331
1964267N21089 1964 87 NI AS NOT_NAMED 1964-09-26 00:00:00 TS 29.2278 76.7080 main 0 0 O________OP___ jtwc_io IO091964 29.2000 76.7000 -1 29.2000 76.7000 TC 25 29.2556 76.7161 1 17 333
1964267N21089 1964 87 NI AS NOT_NAMED 1964-09-26 03:00:00 NR 30.0000 76.3000 main 0 __________O___ IO091964 -1 TC 30.0000 76.3000 1 17 335

IBTrACS Databaseについて

本データベースは、米国NOAAが公開する1842年以降の世界の熱帯低気圧のベストトラックデータアーカイブInternational Best Track Archive for Climate Stewardship (IBTrACS)を、ウェブで閲覧しやすい形式に変換したものです。

最終更新日:2021-10-25